Time;durP1;ratioP1;P1;durP2;ratioP2;P2;SDS_P1;SDS_P2;PMS_P1;PMS_P2;Temp;Humidity;BMP_temperature;BMP_pressure;BME280_temperature;BME280_humidity;BME280_pressure;Samples;Min_cycle;Max_cycle;Signal;HPM_P1;HPM_P2
2023/11/24 00:00:16;;;;;;;1.23;1.13;;;9.40;99.90;;;;;;5034907;28;20179;-76
2023/11/24 00:02:42;;;;;;;1.27;1.17;;;9.40;99.90;;;;;;5034846;28;20197;-76
2023/11/24 00:05:08;;;;;;;1.33;1.00;;;9.40;99.90;;;;;;5034311;28;20187;-76
2023/11/24 00:07:35;;;;;;;1.03;0.80;;;9.20;99.90;;;;;;5034319;28;20240;-76
2023/11/24 00:10:01;;;;;;;1.40;1.17;;;9.20;99.90;;;;;;5034542;28;20195;-76
2023/11/24 00:12:26;;;;;;;1.90;0.93;;;9.20;99.90;;;;;;5034282;28;20424;-77
2023/11/24 00:14:52;;;;;;;2.20;1.20;;;9.10;99.90;;;;;;5034298;28;20704;-77
2023/11/24 00:17:19;;;;;;;0.93;0.70;;;9.10;99.90;;;;;;5034127;28;20170;-76
2023/11/24 00:19:44;;;;;;;1.00;0.90;;;9.10;99.90;;;;;;5034061;28;20171;-76
2023/11/24 00:22:10;;;;;;;1.20;0.90;;;9.20;99.90;;;;;;5034008;28;20438;-76
2023/11/24 00:24:37;;;;;;;1.17;1.07;;;9.30;99.90;;;;;;5034100;28;20184;-75
2023/11/24 00:27:03;;;;;;;2.70;0.90;;;9.20;99.90;;;;;;5034216;28;20554;-75
2023/11/24 00:29:28;;;;;;;2.27;1.10;;;9.10;99.90;;;;;;5034149;28;20413;-76
2023/11/24 00:31:54;;;;;;;0.80;0.70;;;9.00;99.90;;;;;;5032633;28;20635;-76
2023/11/24 00:34:19;;;;;;;2.57;1.20;;;9.20;99.90;;;;;;5033792;28;20609;-77
2023/11/24 00:36:46;;;;;;;1.33;1.23;;;9.10;99.90;;;;;;5033765;28;20624;-76
2023/11/24 00:39:13;;;;;;;1.00;0.80;;;9.10;99.90;;;;;;5032485;28;20182;-76
2023/11/24 00:41:39;;;;;;;1.00;0.90;;;9.20;99.90;;;;;;5033891;28;20439;-77
2023/11/24 00:44:05;;;;;;;0.90;0.80;;;9.20;99.90;;;;;;5032779;28;20464;-77
2023/11/24 00:46:30;;;;;;;1.10;0.80;;;9.30;99.90;;;;;;5032388;28;20450;-76
2023/11/24 00:48:59;;;;;;;1.23;1.00;;;9.30;99.90;;;;;;5033238;28;20171;-77
2023/11/24 00:51:24;;;;;;;1.67;1.00;;;9.40;99.90;;;;;;5033351;28;20613;-77
2023/11/24 00:53:51;;;;;;;0.80;0.80;;;9.20;99.90;;;;;;5033430;28;20412;-77
2023/11/24 00:56:17;;;;;;;1.47;0.97;;;9.40;99.90;;;;;;5034327;28;20411;-76
2023/11/24 00:58:43;;;;;;;1.40;0.97;;;9.50;99.90;;;;;;5033515;28;20881;-76
2023/11/24 01:01:09;;;;;;;2.10;1.20;;;9.40;99.90;;;;;;5033827;28;20185;-76
2023/11/24 01:03:35;;;;;;;2.00;1.07;;;9.30;99.90;;;;;;5033688;28;20437;-77
2023/11/24 01:06:00;;;;;;;2.20;1.23;;;9.30;99.90;;;;;;5032020;28;20206;-76
2023/11/24 01:08:26;;;;;;;1.00;0.80;;;9.40;99.90;;;;;;5033261;28;20241;-77
2023/11/24 01:10:56;;;;;;;2.70;1.10;;;9.40;99.90;;;;;;5033385;28;20198;-77
2023/11/24 01:13:22;;;;;;;1.57;1.10;;;9.50;99.90;;;;;;5034286;28;20573;-76
2023/11/24 01:15:47;;;;;;;1.03;0.93;;;9.30;99.90;;;;;;5013735;28;20402;-77
2023/11/24 01:18:13;;;;;;;2.10;1.40;;;9.40;99.90;;;;;;5023387;28;20173;-76
2023/11/24 01:20:38;;;;;;;1.80;1.00;;;9.40;99.90;;;;;;5033060;28;20171;-76
2023/11/24 01:23:04;;;;;;;1.20;1.07;;;9.30;99.90;;;;;;5033282;28;20249;-76
2023/11/24 01:25:31;;;;;;;1.53;1.20;;;9.30;99.90;;;;;;5033311;28;20168;-76
2023/11/24 01:27:56;;;;;;;1.20;0.97;;;9.20;99.90;;;;;;5033195;28;20190;-76
2023/11/24 01:30:22;;;;;;;2.13;1.27;;;9.20;99.90;;;;;;5033189;28;20413;-75
2023/11/24 01:32:47;;;;;;;1.10;1.00;;;9.20;99.90;;;;;;5036056;28;20168;-75
2023/11/24 01:35:13;;;;;;;1.43;1.13;;;9.30;99.90;;;;;;5039581;28;20191;-75
2023/11/24 01:37:38;;;;;;;1.13;1.03;;;9.20;99.90;;;;;;5038473;28;20175;-75
2023/11/24 01:40:06;;;;;;;2.50;1.40;;;9.30;99.90;;;;;;5039514;28;20173;-77
2023/11/24 01:42:36;;;;;;;1.40;1.30;;;9.30;99.90;;;;;;5039412;28;20430;-76
2023/11/24 01:45:04;;;;;;;1.17;0.90;;;9.30;99.90;;;;;;5038174;28;20415;-77
2023/11/24 01:47:29;;;;;;;1.30;0.80;;;9.20;99.90;;;;;;5039390;28;20541;-76
2023/11/24 01:49:55;;;;;;;2.30;1.00;;;9.30;99.90;;;;;;5039999;28;20440;-76
2023/11/24 01:52:24;;;;;;;3.87;1.17;;;9.30;99.90;;;;;;5039441;28;20276;-76
2023/11/24 01:54:50;;;;;;;2.43;1.27;;;9.30;99.90;;;;;;5039190;28;20174;-76
2023/11/24 01:57:16;;;;;;;1.10;0.87;;;9.10;99.90;;;;;;5039423;28;20416;-76
2023/11/24 01:59:41;;;;;;;1.30;1.20;;;9.10;99.90;;;;;;5039710;28;20414;-75
2023/11/24 02:02:07;;;;;;;2.03;1.47;;;9.00;99.90;;;;;;5039578;28;20792;-74
2023/11/24 02:04:33;;;;;;;1.47;1.20;;;8.80;99.90;;;;;;5039454;28;20181;-74
2023/11/24 02:07:00;;;;;;;1.10;1.00;;;8.90;99.90;;;;;;5037861;28;20291;-73
2023/11/24 02:09:28;;;;;;;1.30;1.20;;;8.90;99.90;;;;;;5039579;28;20641;-74
2023/11/24 02:11:53;;;;;;;1.80;1.60;;;8.90;99.90;;;;;;5039313;28;20426;-73
2023/11/24 02:14:19;;;;;;;2.27;1.60;;;8.90;99.90;;;;;;5039344;28;20396;-74
2023/11/24 02:16:44;;;;;;;1.57;1.30;;;8.90;99.90;;;;;;5039291;28;20172;-73
2023/11/24 02:19:11;;;;;;;1.37;1.27;;;8.90;99.90;;;;;;5039206;28;20161;-74
2023/11/24 02:21:37;;;;;;;2.20;1.13;;;8.80;99.90;;;;;;5037801;28;20202;-74
2023/11/24 02:24:05;;;;;;;2.17;1.47;;;8.80;99.90;;;;;;5039373;28;20410;-74
2023/11/24 02:26:31;;;;;;;5.27;1.53;;;8.90;99.90;;;;;;5039315;28;20197;-73
2023/11/24 02:28:57;;;;;;;1.40;1.20;;;8.90;99.90;;;;;;5039134;28;20493;-74
2023/11/24 02:31:22;;;;;;;1.23;1.13;;;9.00;99.90;;;;;;5039427;28;20185;-75
2023/11/24 02:33:49;;;;;;;1.90;0.90;;;8.90;99.90;;;;;;5039267;28;20171;-73
2023/11/24 02:36:20;;;;;;;2.20;1.57;;;8.90;99.90;;;;;;5039044;28;20169;-74
2023/11/24 02:38:49;;;;;;;1.97;1.40;;;9.00;99.90;;;;;;5039936;28;20400;-74
2023/11/24 02:41:18;;;;;;;1.07;0.97;;;8.90;99.90;;;;;;5039048;28;21031;-76
2023/11/24 02:43:44;;;;;;;1.37;1.20;;;8.90;99.90;;;;;;5037928;28;20426;-74
2023/11/24 02:46:12;;;;;;;1.57;1.00;;;9.00;99.90;;;;;;5035295;28;20446;-74
2023/11/24 02:48:38;;;;;;;1.10;1.00;;;8.90;99.90;;;;;;5034104;28;20473;-74
2023/11/24 02:51:04;;;;;;;1.73;1.20;;;8.80;99.90;;;;;;5035889;28;20442;-75
2023/11/24 02:53:30;;;;;;;1.40;1.30;;;8.90;99.90;;;;;;5036249;28;20166;-75
2023/11/24 02:55:55;;;;;;;1.00;0.80;;;9.00;99.90;;;;;;5035734;28;20418;-73
2023/11/24 02:58:21;;;;;;;1.20;1.00;;;8.90;99.90;;;;;;5035664;28;20638;-74
2023/11/24 03:00:46;;;;;;;1.10;0.90;;;9.00;99.90;;;;;;5035989;28;20186;-74
2023/11/24 03:03:12;;;;;;;1.20;1.10;;;8.80;99.90;;;;;;5035319;28;20177;-74
2023/11/24 03:05:38;;;;;;;1.23;0.87;;;8.80;99.90;;;;;;5035371;28;20630;-74
2023/11/24 03:08:03;;;;;;;0.90;0.80;;;8.90;99.90;;;;;;5035333;28;20561;-75
2023/11/24 03:10:29;;;;;;;1.53;1.00;;;8.90;99.90;;;;;;5035868;28;20168;-75
2023/11/24 03:12:55;;;;;;;1.40;0.90;;;9.00;99.90;;;;;;5035963;28;20200;-75
2023/11/24 03:15:21;;;;;;;1.47;0.70;;;9.00;99.90;;;;;;5033747;28;20469;-73
2023/11/24 03:17:46;;;;;;;1.00;0.80;;;9.00;99.90;;;;;;5035122;28;20172;-73
2023/11/24 03:20:13;;;;;;;1.57;0.70;;;9.10;99.90;;;;;;5035422;28;20214;-74
2023/11/24 03:22:39;;;;;;;0.77;0.63;;;9.10;99.90;;;;;;5035060;28;20193;-73
2023/11/24 03:25:07;;;;;;;0.77;0.60;;;9.10;99.90;;;;;;5035054;28;20920;-73
2023/11/24 03:27:33;;;;;;;1.20;0.87;;;9.20;99.90;;;;;;5033705;28;20454;-74
2023/11/24 03:29:58;;;;;;;1.10;0.80;;;9.20;99.90;;;;;;5035534;28;20442;-74
2023/11/24 03:32:24;;;;;;;0.77;0.70;;;9.20;99.90;;;;;;5034897;28;20423;-74
2023/11/24 03:34:50;;;;;;;0.90;0.70;;;9.10;99.90;;;;;;5034841;28;20170;-73
2023/11/24 03:37:15;;;;;;;0.90;0.70;;;9.00;99.90;;;;;;5033589;28;20417;-74
2023/11/24 03:39:41;;;;;;;1.10;0.70;;;9.00;99.90;;;;;;5035099;28;20183;-73
2023/11/24 03:42:06;;;;;;;0.90;0.80;;;9.00;99.90;;;;;;5034947;28;20188;-74
2023/11/24 03:44:32;;;;;;;1.00;0.70;;;9.00;99.90;;;;;;5034767;28;20171;-73
2023/11/24 03:46:58;;;;;;;0.80;0.70;;;9.10;99.90;;;;;;5033409;28;20645;-74
2023/11/24 03:49:23;;;;;;;0.73;0.60;;;8.90;99.90;;;;;;5034601;28;20173;-74
2023/11/24 03:51:49;;;;;;;0.80;0.63;;;9.00;99.90;;;;;;5057318;23;20230;-73
2023/11/24 03:54:14;;;;;;;0.77;0.50;;;8.90;99.90;;;;;;5039638;28;20172;-73
2023/11/24 03:56:40;;;;;;;0.70;0.50;;;9.00;99.90;;;;;;5054364;28;20173;-73
2023/11/24 03:59:05;;;;;;;0.97;0.87;;;9.00;99.90;;;;;;5054246;28;20254;-73
2023/11/24 04:01:31;;;;;;;1.40;0.60;;;9.10;99.90;;;;;;5054188;28;20180;-73
2023/11/24 04:03:58;;;;;;;1.17;0.60;;;9.10;99.90;;;;;;5052525;28;20178;-73
2023/11/24 04:06:24;;;;;;;1.10;0.70;;;9.10;99.90;;;;;;5034548;28;20574;-73
2023/11/24 04:08:51;;;;;;;1.30;0.63;;;9.00;99.90;;;;;;5034431;28;20407;-73
2023/11/24 04:11:17;;;;;;;0.80;0.60;;;9.00;99.90;;;;;;5034501;28;20690;-73
2023/11/24 04:13:42;;;;;;;1.23;0.60;;;9.00;99.90;;;;;;5034242;28;20431;-73
2023/11/24 04:16:08;;;;;;;0.80;0.60;;;9.20;99.90;;;;;;5054284;28;20174;-73
2023/11/24 04:18:33;;;;;;;0.80;0.60;;;9.10;99.90;;;;;;5053981;28;20174;-73
2023/11/24 04:20:59;;;;;;;0.70;0.60;;;9.00;99.90;;;;;;5053965;28;20170;-73
2023/11/24 04:23:25;;;;;;;0.80;0.60;;;9.00;99.90;;;;;;5053824;28;20175;-73
2023/11/24 04:25:50;;;;;;;1.00;0.63;;;9.00;99.90;;;;;;5036223;28;20171;-73
2023/11/24 04:28:16;;;;;;;0.80;0.50;;;9.00;99.90;;;;;;5032592;28;20242;-73
2023/11/24 04:30:42;;;;;;;0.70;0.50;;;8.90;99.90;;;;;;5034827;28;20155;-75
2023/11/24 04:33:07;;;;;;;1.03;0.80;;;8.90;99.90;;;;;;5033704;28;20162;-75
2023/11/24 04:35:33;;;;;;;0.77;0.50;;;9.00;99.90;;;;;;5048652;28;20166;-75
2023/11/24 04:37:59;;;;;;;0.80;0.60;;;9.10;99.90;;;;;;5053593;28;20181;-75
2023/11/24 04:40:25;;;;;;;2.50;0.50;;;9.20;99.90;;;;;;5054040;28;20171;-75
2023/11/24 04:42:52;;;;;;;1.13;0.83;;;9.10;99.90;;;;;;5053466;28;20443;-73
2023/11/24 04:45:18;;;;;;;0.70;0.50;;;9.10;99.90;;;;;;5043505;28;20172;-75
2023/11/24 04:47:43;;;;;;;0.70;0.57;;;9.30;99.90;;;;;;5033450;28;20862;-75
2023/11/24 04:50:12;;;;;;;0.80;0.50;;;9.20;99.90;;;;;;5033847;28;20408;-74
2023/11/24 04:52:38;;;;;;;0.70;0.53;;;9.20;99.90;;;;;;5032101;28;20210;-75
2023/11/24 04:55:04;;;;;;;0.80;0.70;;;9.20;99.90;;;;;;5044136;28;20406;-74
2023/11/24 04:57:33;;;;;;;4.50;0.97;;;9.20;99.90;;;;;;5052338;28;20182;-75
2023/11/24 05:00:00;;;;;;;2.47;0.93;;;8.70;99.90;;;;;;5053258;28;20444;-74
2023/11/24 05:02:26;;;;;;;3.67;1.40;;;8.30;99.90;;;;;;5053368;28;20581;-74
2023/11/24 05:04:51;;;;;;;1.63;0.97;;;8.20;99.90;;;;;;5048972;28;20451;-73
2023/11/24 05:07:18;;;;;;;4.30;1.53;;;8.10;99.90;;;;;;5052751;28;20212;-74
2023/11/24 05:09:45;;;;;;;3.37;1.63;;;7.90;99.90;;;;;;5053893;28;20169;-72
2023/11/24 05:12:10;;;;;;;3.73;1.27;;;7.80;99.90;;;;;;5053088;28;20423;-74
2023/11/24 05:14:36;;;;;;;3.23;1.60;;;7.80;99.90;;;;;;5046716;28;20980;-74
2023/11/24 05:17:01;;;;;;;6.90;1.47;;;7.70;99.90;;;;;;5051877;28;20207;-74
2023/11/24 05:19:27;;;;;;;3.70;1.43;;;7.60;99.90;;;;;;5052998;28;20224;-73
2023/11/24 05:21:53;;;;;;;3.40;1.63;;;7.60;99.90;;;;;;5052834;28;20669;-74
2023/11/24 05:24:19;;;;;;;3.77;1.33;;;7.70;99.90;;;;;;5047779;28;20245;-74
2023/11/24 05:26:44;;;;;;;6.67;2.27;;;7.80;99.90;;;;;;5033041;28;20456;-74
2023/11/24 05:29:10;;;;;;;4.67;2.10;;;7.70;99.90;;;;;;5032011;28;20198;-74
2023/11/24 05:31:35;;;;;;;2.80;1.63;;;7.90;99.90;;;;;;5033179;28;20198;-74
2023/11/24 05:34:01;;;;;;;7.60;2.10;;;8.00;99.90;;;;;;5034281;28;20653;-74
2023/11/24 05:36:27;;;;;;;5.50;1.90;;;7.90;99.90;;;;;;5052761;28;20634;-74
2023/11/24 05:38:54;;;;;;;5.67;2.10;;;7.80;99.90;;;;;;5053278;28;20162;-73
2023/11/24 05:41:21;;;;;;;5.03;2.17;;;8.00;99.90;;;;;;5053397;28;20428;-74
2023/11/24 05:43:47;;;;;;;5.70;2.30;;;7.90;99.90;;;;;;5053123;28;20490;-74
2023/11/24 05:46:13;;;;;;;6.40;2.73;;;7.80;99.90;;;;;;5033191;28;20941;-74
2023/11/24 05:48:39;;;;;;;7.40;2.33;;;7.80;99.90;;;;;;5033347;28;20515;-75
2023/11/24 05:51:05;;;;;;;6.43;2.50;;;7.90;99.90;;;;;;5032910;28;20465;-75
2023/11/24 05:53:31;;;;;;;6.03;1.90;;;7.90;99.90;;;;;;5032956;28;20226;-74
2023/11/24 05:55:57;;;;;;;4.13;2.30;;;7.80;99.90;;;;;;5050201;28;20181;-74
2023/11/24 05:58:23;;;;;;;7.90;2.27;;;7.60;99.90;;;;;;5052649;28;20633;-75
2023/11/24 06:00:49;;;;;;;4.93;2.63;;;7.60;99.90;;;;;;5052652;28;20446;-74
2023/11/24 06:03:15;;;;;;;6.07;3.00;;;7.60;99.90;;;;;;5052426;28;20781;-75
2023/11/24 06:05:41;;;;;;;6.10;2.63;;;7.60;99.90;;;;;;5037847;28;20740;-74
2023/11/24 06:08:06;;;;;;;10.80;2.67;;;7.60;99.90;;;;;;5031250;28;20485;-75
2023/11/24 06:10:32;;;;;;;6.53;2.90;;;7.60;99.90;;;;;;5032768;28;20405;-75
2023/11/24 06:12:58;;;;;;;5.93;2.87;;;7.60;99.90;;;;;;5032544;28;20563;-75
2023/11/24 06:15:24;;;;;;;7.13;2.57;;;7.60;99.90;;;;;;5044669;28;20462;-75
2023/11/24 06:17:50;;;;;;;3.57;2.47;;;7.70;99.90;;;;;;5052226;28;20182;-73
2023/11/24 06:20:18;;;;;;;5.93;3.20;;;7.70;99.90;;;;;;5055651;28;20311;-72
2023/11/24 06:22:44;;;;;;;4.17;2.27;;;7.70;99.90;;;;;;5054747;28;20784;-73
2023/11/24 06:25:10;;;;;;;4.33;2.20;;;7.60;99.90;;;;;;5044967;28;20414;-73
2023/11/24 06:27:36;;;;;;;6.03;2.47;;;7.70;99.90;;;;;;5036203;28;20441;-74
2023/11/24 06:30:05;;;;;;;6.40;2.40;;;7.60;99.90;;;;;;5034978;28;20522;-74
2023/11/24 06:32:31;;;;;;;4.03;2.43;;;7.70;99.90;;;;;;5035023;28;20441;-73
2023/11/24 06:34:57;;;;;;;7.27;2.30;;;7.70;99.90;;;;;;5042774;28;20917;-74
2023/11/24 06:37:23;;;;;;;8.47;2.13;;;7.60;99.90;;;;;;5055958;28;20408;-74
2023/11/24 06:39:49;;;;;;;3.20;1.93;;;7.70;99.90;;;;;;5051505;28;20412;-73
2023/11/24 06:42:14;;;;;;;3.83;2.20;;;7.60;99.90;;;;;;5055389;28;20222;-75
2023/11/24 06:44:40;;;;;;;4.83;2.47;;;7.70;99.90;;;;;;5048745;28;20228;-73
2023/11/24 06:47:06;;;;;;;4.80;2.23;;;7.70;99.90;;;;;;5035683;28;20209;-73
2023/11/24 06:49:32;;;;;;;3.50;2.13;;;7.70;99.90;;;;;;5035335;28;20210;-73
2023/11/24 06:52:01;;;;;;;4.73;1.83;;;7.70;99.90;;;;;;5034222;28;20745;-73
2023/11/24 06:54:29;;;;;;;6.03;1.97;;;7.80;99.90;;;;;;5039156;28;20404;-73
2023/11/24 06:56:56;;;;;;;2.80;1.67;;;7.80;99.90;;;;;;5055551;28;20559;-74
2023/11/24 06:59:22;;;;;;;6.50;2.37;;;7.80;99.90;;;;;;5055686;28;20404;-74
2023/11/24 07:01:48;;;;;;;4.17;2.40;;;7.90;99.90;;;;;;5055583;28;20541;-73
2023/11/24 07:04:14;;;;;;;6.43;2.33;;;7.90;99.90;;;;;;5054226;28;20872;-73
2023/11/24 07:06:40;;;;;;;6.60;2.10;;;8.00;99.90;;;;;;5035190;28;20494;-73
2023/11/24 07:09:05;;;;;;;4.13;2.30;;;7.90;99.90;;;;;;5047526;28;20538;-74
2023/11/24 07:11:31;;;;;;;5.93;2.00;;;8.00;99.90;;;;;;5055129;28;20287;-74
2023/11/24 07:13:56;;;;;;;5.20;2.33;;;8.20;99.90;;;;;;5053743;28;20175;-74
2023/11/24 07:16:22;;;;;;;6.30;2.10;;;8.30;99.90;;;;;;5037035;28;20641;-72
2023/11/24 07:18:48;;;;;;;6.63;2.10;;;8.30;99.90;;;;;;5031015;28;20180;-74
2023/11/24 07:21:15;;;;;;;7.97;2.40;;;8.40;99.90;;;;;;5035203;28;20201;-74
2023/11/24 07:23:41;;;;;;;4.23;2.40;;;8.40;99.90;;;;;;5034939;28;20169;-74
2023/11/24 07:26:08;;;;;;;5.83;2.73;;;8.50;99.90;;;;;;5051759;28;20463;-74
2023/11/24 07:28:38;;;;;;;3.43;1.87;;;8.50;99.90;;;;;;5055095;28;20432;-74
2023/11/24 07:31:04;;;;;;;7.30;2.43;;;8.60;99.90;;;;;;5053868;28;20477;-74
2023/11/24 07:33:33;;;;;;;4.53;2.70;;;8.70;99.90;;;;;;5054743;28;20404;-74
2023/11/24 07:35:58;;;;;;;5.17;2.70;;;8.80;99.90;;;;;;5038914;28;20908;-74
2023/11/24 07:38:25;;;;;;;6.43;2.80;;;8.80;99.90;;;;;;5034990;28;20487;-74
2023/11/24 07:40:51;;;;;;;5.20;2.07;;;8.90;99.90;;;;;;5034546;28;20522;-74
2023/11/24 07:43:17;;;;;;;5.93;2.60;;;8.90;99.90;;;;;;5034495;28;20913;-74
2023/11/24 07:45:48;;;;;;;7.47;2.70;;;8.70;99.90;;;;;;5047752;28;20480;-74
2023/11/24 07:48:14;;;;;;;5.97;2.40;;;8.80;99.90;;;;;;5054704;28;20429;-73
2023/11/24 07:50:39;;;;;;;5.23;2.00;;;8.80;99.90;;;;;;5053034;28;20496;-73
2023/11/24 07:53:05;;;;;;;4.00;2.07;;;8.70;99.90;;;;;;5054289;28;20952;-74
2023/11/24 07:55:30;;;;;;;3.07;1.70;;;8.80;99.90;;;;;;5042829;28;20588;-73
2023/11/24 07:57:56;;;;;;;7.43;2.30;;;8.80;99.90;;;;;;5034245;28;20725;-73
2023/11/24 08:00:21;;;;;;;4.97;2.50;;;8.80;99.90;;;;;;5034279;28;20541;-73
2023/11/24 08:02:47;;;;;;;6.97;2.67;;;8.80;99.90;;;;;;5034319;28;20191;-74
2023/11/24 08:05:13;;;;;;;5.37;1.90;;;8.80;99.90;;;;;;5043200;28;20193;-74
2023/11/24 08:07:38;;;;;;;5.33;2.27;;;8.70;99.90;;;;;;5054074;28;20694;-73
2023/11/24 08:10:04;;;;;;;4.17;1.40;;;8.70;99.90;;;;;;5053985;28;20176;-76
2023/11/24 08:12:30;;;;;;;3.53;1.60;;;8.80;99.90;;;;;;5054106;28;20247;-74
2023/11/24 08:14:58;;;;;;;5.33;2.20;;;8.90;99.90;;;;;;5047236;28;20403;-74
2023/11/24 08:17:24;;;;;;;7.53;2.47;;;9.00;99.90;;;;;;5034531;28;20217;-74
2023/11/24 08:19:49;;;;;;;4.60;2.17;;;9.00;99.90;;;;;;5032488;28;20904;-74
2023/11/24 08:22:15;;;;;;;3.13;1.80;;;9.10;99.90;;;;;;5034118;28;20682;-73
2023/11/24 08:24:42;;;;;;;4.70;2.60;;;9.10;99.90;;;;;;5037886;28;20548;-73
2023/11/24 08:27:07;;;;;;;9.00;3.30;;;9.10;99.90;;;;;;5054381;28;20307;-74
2023/11/24 08:29:33;;;;;;;3.10;1.80;;;9.20;99.90;;;;;;5054658;28;20426;-73
2023/11/24 08:31:59;;;;;;;4.73;2.43;;;9.10;99.90;;;;;;5056597;28;20188;-74
2023/11/24 08:34:25;;;;;;;3.10;2.20;;;8.80;99.90;;;;;;5051428;28;20164;-73
2023/11/24 08:36:50;;;;;;;5.00;2.93;;;8.90;99.90;;;;;;5033662;28;20410;-73
2023/11/24 08:39:17;;;;;;;5.00;2.07;;;8.90;99.90;;;;;;5033501;28;20178;-73
2023/11/24 08:41:48;;;;;;;5.60;2.40;;;8.70;99.90;;;;;;5033280;28;20287;-73
2023/11/24 08:44:13;;;;;;;5.30;2.43;;;8.80;99.90;;;;;;5033713;28;20401;-73
2023/11/24 08:46:39;;;;;;;5.43;2.53;;;8.80;99.90;;;;;;5053187;28;20450;-73
2023/11/24 08:49:10;;;;;;;8.60;2.87;;;8.80;99.90;;;;;;5053236;28;20187;-73
2023/11/24 08:51:36;;;;;;;4.90;2.50;;;8.90;99.90;;;;;;5052292;28;20482;-73
2023/11/24 08:54:03;;;;;;;6.40;2.63;;;9.00;99.90;;;;;;5053433;28;20820;-73
2023/11/24 08:56:29;;;;;;;7.50;2.90;;;8.90;99.90;;;;;;5034459;28;20441;-73
2023/11/24 08:58:55;;;;;;;4.13;2.03;;;9.00;99.90;;;;;;5033171;28;20414;-73
2023/11/24 09:01:20;;;;;;;3.90;2.77;;;9.10;99.90;;;;;;5031975;28;20438;-73
2023/11/24 09:03:46;;;;;;;6.87;2.97;;;9.10;99.90;;;;;;5033216;28;20170;-73
2023/11/24 09:06:12;;;;;;;9.67;3.10;;;9.20;99.90;;;;;;5034296;28;20167;-73
2023/11/24 09:08:37;;;;;;;8.20;2.80;;;9.20;99.90;;;;;;5031776;28;20168;-73
2023/11/24 09:11:04;;;;;;;4.47;2.50;;;9.10;99.90;;;;;;5032843;28;20189;-74
2023/11/24 09:13:29;;;;;;;5.67;2.47;;;9.20;99.90;;;;;;5033206;28;20164;-73
2023/11/24 09:15:55;;;;;;;9.30;3.00;;;9.20;99.90;;;;;;5046642;28;21030;-73
2023/11/24 09:18:23;;;;;;;7.90;2.90;;;9.10;99.90;;;;;;5052974;28;20195;-73
2023/11/24 09:20:49;;;;;;;8.80;2.97;;;9.10;99.90;;;;;;5052836;28;20179;-73
2023/11/24 09:23:15;;;;;;;4.67;2.70;;;9.10;99.90;;;;;;5052953;28;20403;-72
2023/11/24 09:25:40;;;;;;;7.20;3.23;;;9.00;99.90;;;;;;5043849;28;20215;-73
2023/11/24 09:28:06;;;;;;;4.60;2.60;;;9.10;99.90;;;;;;5051047;28;20642;-73
2023/11/24 09:30:31;;;;;;;7.70;3.17;;;9.10;99.90;;;;;;5051256;28;20177;-73
2023/11/24 09:32:57;;;;;;;5.40;2.80;;;9.10;99.90;;;;;;5051642;28;20184;-73
2023/11/24 09:35:26;;;;;;;8.60;3.30;;;9.00;99.90;;;;;;5042523;28;20539;-72
2023/11/24 09:37:52;;;;;;;6.23;2.67;;;8.90;99.90;;;;;;5031633;28;20184;-74
2023/11/24 09:40:22;;;;;;;7.90;3.23;;;9.00;99.90;;;;;;5031845;28;20402;-73
2023/11/24 09:42:49;;;;;;;4.90;2.67;;;9.00;99.90;;;;;;5031577;28;20439;-73
2023/11/24 09:45:20;;;;;;;8.53;3.13;;;9.00;99.90;;;;;;5039872;28;20493;-74
2023/11/24 09:47:51;;;;;;;7.33;2.83;;;9.10;99.90;;;;;;5051383;28;20799;-72
2023/11/24 09:50:24;;;;;;;6.20;3.17;;;9.00;99.90;;;;;;5051099;28;20484;-74
2023/11/24 09:52:58;;;;;;;7.20;2.37;;;8.90;99.90;;;;;;5061453;22;20509;-76
2023/11/24 09:55:25;;;;;;;8.27;2.70;;;9.00;99.90;;;;;;5036932;28;20490;-76
2023/11/24 09:57:51;;;;;;;11.40;3.30;;;9.00;99.90;;;;;;5037088;28;20456;-76
2023/11/24 10:00:19;;;;;;;9.07;3.20;;;9.10;99.90;;;;;;5036651;28;20914;-75
2023/11/24 10:02:46;;;;;;;8.40;2.77;;;9.20;99.90;;;;;;5035517;28;20206;-74
2023/11/24 10:05:17;;;;;;;8.33;3.40;;;9.20;99.90;;;;;;5036874;28;20428;-76
2023/11/24 10:07:46;;;;;;;8.87;2.70;;;9.10;99.90;;;;;;5036827;28;20443;-76
2023/11/24 10:10:28;;;;;;;7.07;2.93;;;9.10;99.90;;;;;;5036571;28;20412;-75
2023/11/24 10:13:01;;;;;;;9.33;3.00;;;9.00;99.90;;;;;;5035148;28;20495;-75
2023/11/24 10:15:28;;;;;;;9.43;2.80;;;9.10;99.90;;;;;;5036391;28;20412;-75
2023/11/24 10:17:53;;;;;;;7.93;2.93;;;9.00;99.90;;;;;;5036537;28;20974;-75
2023/11/24 10:20:22;;;;;;;12.30;3.23;;;9.00;99.90;;;;;;5036555;28;20484;-76
2023/11/24 10:22:50;;;;;;;12.87;3.13;;;9.00;99.90;;;;;;5035371;28;20198;-75
2023/11/24 10:25:20;;;;;;;9.53;3.07;;;9.00;99.90;;;;;;5036521;28;20407;-76
2023/11/24 10:27:46;;;;;;;11.17;3.03;;;9.10;99.90;;;;;;5036028;28;20466;-75
2023/11/24 10:30:12;;;;;;;9.53;3.10;;;9.10;99.90;;;;;;5036542;28;20480;-75
2023/11/24 10:32:44;;;;;;;14.03;3.90;;;9.20;99.90;;;;;;5036133;28;20419;-75
2023/11/24 10:35:12;;;;;;;8.80;2.40;;;9.20;99.90;;;;;;5036266;28;20412;-76
2023/11/24 10:37:41;;;;;;;4.23;2.47;;;9.10;99.90;;;;;;5036573;28;20490;-75
2023/11/24 10:40:11;;;;;;;6.13;3.00;;;9.20;99.90;;;;;;5036550;28;20409;-77
2023/11/24 10:42:47;;;;;;;7.27;3.10;;;9.20;99.90;;;;;;5036354;28;20448;-76
2023/11/24 10:45:18;;;;;;;12.57;3.13;;;9.20;99.90;;;;;;5036207;28;20404;-77
2023/11/24 10:47:52;;;;;;;8.20;3.10;;;9.20;99.90;;;;;;5036276;28;20444;-76
2023/11/24 10:50:24;;;;;;;11.07;3.10;;;9.20;99.90;;;;;;5036258;28;20382;-76
2023/11/24 10:53:04;;;;;;;5.47;2.77;;;9.20;99.90;;;;;;5035753;28;20815;-76
2023/11/24 10:55:33;;;;;;;6.30;2.63;;;9.90;99.90;;;;;;5035935;28;20502;-76
2023/11/24 10:58:01;;;;;;;9.70;3.00;;;10.70;99.90;;;;;;5036276;28;20405;-75
2023/11/24 11:00:28;;;;;;;11.23;3.77;;;10.70;99.90;;;;;;5036355;28;20502;-75
2023/11/24 11:02:55;;;;;;;4.80;2.60;;;10.10;99.90;;;;;;5035878;28;20475;-76
2023/11/24 11:05:36;;;;;;;6.00;3.10;;;9.90;99.90;;;;;;5034940;28;20456;-77
2023/11/24 11:08:21;;;;;;;8.87;3.00;;;9.70;99.90;;;;;;5035572;28;20441;-76
2023/11/24 11:11:31;;;;;;;9.83;2.90;;;9.70;99.90;;;;;;5039951;28;20405;-76
2023/11/24 11:13:58;;;;;;;9.47;3.73;;;10.00;99.90;;;;;;5034709;28;20524;-77
2023/11/24 11:16:23;;;;;;;8.20;3.20;;;10.50;99.90;;;;;;5035513;28;20500;-76
2023/11/24 11:18:49;;;;;;;7.60;2.07;;;10.80;99.90;;;;;;5038017;28;20924;-76
2023/11/24 11:21:30;;;;;;;6.30;3.17;;;11.10;99.90;;;;;;5050739;28;20237;-75
2023/11/24 11:23:56;;;;;;;10.73;3.60;;;10.90;99.90;;;;;;5037793;28;20472;-76
2023/11/24 11:26:45;;;;;;;6.30;2.90;;;10.80;99.90;;;;;;5035339;28;20438;-76
2023/11/24 11:29:23;;;;;;;6.20;2.80;;;10.30;99.90;;;;;;5035425;28;20924;-76
2023/11/24 11:31:52;;;;;;;10.17;2.97;;;10.00;99.90;;;;;;5034835;28;20467;-75
2023/11/24 11:34:25;;;;;;;5.83;2.43;;;9.80;99.90;;;;;;5035122;28;20811;-76
2023/11/24 11:37:06;;;;;;;6.90;3.00;;;9.60;99.90;;;;;;5035283;28;20540;-75
2023/11/24 11:39:47;;;;;;;8.43;3.17;;;9.60;99.90;;;;;;5035141;28;20392;-76
2023/11/24 11:42:14;;;;;;;6.23;3.17;;;9.50;99.90;;;;;;5034898;28;20450;-76
2023/11/24 11:44:46;;;;;;;9.70;3.00;;;9.60;99.90;;;;;;5034984;28;20406;-75
2023/11/24 11:47:26;;;;;;;7.90;3.10;;;9.70;99.90;;;;;;5035463;28;20435;-76
2023/11/24 11:49:56;;;;;;;7.63;2.90;;;9.60;99.90;;;;;;5034877;28;20764;-75
2023/11/24 11:52:27;;;;;;;6.10;3.20;;;9.50;99.90;;;;;;5034463;28;20441;-75
2023/11/24 11:54:55;;;;;;;5.33;2.43;;;9.40;99.90;;;;;;5033591;28;20433;-75
2023/11/24 11:57:21;;;;;;;9.47;2.73;;;9.30;99.90;;;;;;5034424;28;20410;-75
2023/11/24 11:59:48;;;;;;;7.87;2.70;;;9.20;99.90;;;;;;5034400;28;20480;-76
2023/11/24 12:02:16;;;;;;;7.73;2.40;;;9.10;99.90;;;;;;5034851;28;20428;-75
2023/11/24 12:04:43;;;;;;;7.80;3.20;;;8.80;99.90;;;;;;5035209;28;20414;-76
2023/11/24 12:07:10;;;;;;;10.30;3.20;;;8.90;99.90;;;;;;5034391;28;20443;-76
2023/11/24 12:09:39;;;;;;;5.53;2.40;;;8.80;99.90;;;;;;5034085;28;20405;-75
2023/11/24 12:12:05;;;;;;;4.20;2.43;;;8.80;99.90;;;;;;5034515;28;20426;-75
2023/11/24 12:14:31;;;;;;;11.63;3.10;;;8.90;99.90;;;;;;5034468;28;20896;-76
2023/11/24 12:16:57;;;;;;;9.43;3.03;;;8.90;99.90;;;;;;5033954;28;20410;-76
2023/11/24 12:19:33;;;;;;;10.43;3.20;;;8.80;99.90;;;;;;5034101;28;20173;-76
2023/11/24 12:22:02;;;;;;;9.53;3.40;;;8.60;99.90;;;;;;5034249;28;20480;-76
2023/11/24 12:24:29;;;;;;;7.70;3.30;;;8.50;99.90;;;;;;5034435;28;20411;-75
2023/11/24 12:26:56;;;;;;;9.87;3.17;;;8.50;99.90;;;;;;5033847;28;20500;-75
2023/11/24 12:29:25;;;;;;;9.30;2.80;;;8.40;99.90;;;;;;5034084;28;20773;-75
2023/11/24 12:31:50;;;;;;;4.13;2.50;;;8.30;99.90;;;;;;5033712;28;20487;-77
2023/11/24 12:34:20;;;;;;;8.60;3.57;;;8.00;99.90;;;;;;5033874;28;20801;-76
2023/11/24 12:36:51;;;;;;;7.03;2.50;;;7.80;99.90;;;;;;5034053;28;20194;-75
2023/11/24 12:39:16;;;;;;;6.13;2.90;;;7.70;99.90;;;;;;5034166;28;20412;-75
2023/11/24 12:41:44;;;;;;;7.70;2.90;;;7.50;99.90;;;;;;5033912;28;20798;-74
2023/11/24 12:44:10;;;;;;;6.60;2.57;;;7.50;99.90;;;;;;5033712;28;20162;-77
2023/11/24 12:46:37;;;;;;;5.27;2.63;;;7.40;99.90;;;;;;5033671;28;20448;-75
2023/11/24 12:49:04;;;;;;;4.30;2.00;;;7.30;99.90;;;;;;5033881;28;20458;-76
2023/11/24 12:51:32;;;;;;;6.63;1.90;;;7.40;99.90;;;;;;5033383;28;20453;-76
2023/11/24 12:54:00;;;;;;;3.67;1.50;;;7.30;99.90;;;;;;5033973;28;20412;-77